Time;durP1;ratioP1;P1;durP2;ratioP2;P2;SDS_P1;SDS_P2;PMS_P1;PMS_P2;Temp;Humidity;BMP_temperature;BMP_pressure;BME280_temperature;BME280_humidity;BME280_pressure;Samples;Min_cycle;Max_cycle;Signal;HPM_P1;HPM_P2
2024/03/05 00:01:58;;;;;;;29.67;14.90;;;;;;;-0.89;100.00;100531.63;5045081;28;20045;-82
2024/03/05 00:04:26;;;;;;;19.52;13.52;;;;;;;-0.92;100.00;100521.38;5059828;28;20045;-80
2024/03/05 00:06:52;;;;;;;32.92;13.18;;;;;;;-0.98;100.00;100526.47;5062891;28;20041;-80
2024/03/05 00:09:18;;;;;;;26.00;15.30;;;;;;;-0.99;100.00;100517.06;5049068;28;20037;-81
2024/03/05 00:11:45;;;;;;;26.63;13.23;;;;;;;-1.03;100.00;100510.22;5044501;28;20037;-82
2024/03/05 00:14:11;;;;;;;18.20;11.88;;;;;;;-1.11;100.00;100490.56;5538602;23;20045;-83
2024/03/05 00:16:37;;;;;;;19.67;12.77;;;;;;;-1.06;100.00;100506.81;5038235;28;20144;-81
2024/03/05 00:19:03;;;;;;;22.67;13.90;;;;;;;-1.12;100.00;100499.13;5107572;23;20101;-83
2024/03/05 00:21:31;;;;;;;22.85;12.60;;;;;;;-1.07;100.00;100502.53;5240384;23;20049;-82
2024/03/05 00:23:57;;;;;;;35.42;12.85;;;;;;;-1.10;100.00;100497.41;5013653;28;20041;-82
2024/03/05 00:26:25;;;;;;;25.35;13.32;;;;;;;-1.11;100.00;100497.38;5006460;28;20057;-83
2024/03/05 00:28:54;;;;;;;19.60;12.65;;;;;;;-1.17;100.00;100497.38;5036560;28;20053;-79
2024/03/05 00:31:21;;;;;;;23.70;11.73;;;;;;;-1.18;100.00;100499.06;5122503;22;20031;-81
2024/03/05 00:33:48;;;;;;;20.70;13.18;;;;;;;-1.13;100.00;100499.09;5106086;22;20037;-83
2024/03/05 00:36:14;;;;;;;21.60;12.98;;;;;;;-1.20;100.00;100498.22;5033210;28;20073;-81
2024/03/05 00:38:42;;;;;;;23.70;13.02;;;;;;;-1.18;100.00;100504.19;5356913;22;20118;-84
2024/03/05 00:41:08;;;;;;;28.98;13.85;;;;;;;-1.22;100.00;100502.50;5174749;23;20049;-81
2024/03/05 00:43:34;;;;;;;21.55;13.50;;;;;;;-1.21;100.00;100498.25;5118091;23;20047;-82
2024/03/05 00:46:00;;;;;;;23.33;13.35;;;;;;;-1.22;100.00;100504.19;4984979;28;20033;-82
2024/03/05 00:48:27;;;;;;;30.90;14.43;;;;;;;-1.41;100.00;100477.69;5012360;28;20041;-82
2024/03/05 00:50:54;;;;;;;25.52;13.63;;;;;;;-1.24;100.00;100495.63;5006337;28;20027;-80
2024/03/05 00:53:22;;;;;;;26.27;13.95;;;;;;;-1.27;100.00;100499.06;4979401;28;20044;-81
2024/03/05 00:55:48;;;;;;;29.63;13.32;;;;;;;-1.33;100.00;100496.47;4993916;28;20042;-80
2024/03/05 00:58:15;;;;;;;34.60;14.18;;;;;;;-1.39;100.00;100488.78;4998589;28;20031;-82
2024/03/05 01:00:43;;;;;;;28.65;14.93;;;;;;;-1.33;100.00;100493.91;5023827;28;20022;-81
2024/03/05 01:03:10;;;;;;;37.30;14.55;;;;;;;-1.35;100.00;100493.06;4999388;28;20102;-79
2024/03/05 01:05:36;;;;;;;29.40;16.70;;;;;;;-1.43;100.00;100499.84;5001098;28;20019;-81
2024/03/05 01:08:06;;;;;;;29.70;14.90;;;;;;;-1.45;100.00;100505.81;5016285;28;20050;-81
2024/03/05 01:10:32;;;;;;;31.67;15.07;;;;;;;-1.39;100.00;100503.28;5008175;28;20041;-80
2024/03/05 01:12:58;;;;;;;31.48;14.18;;;;;;;-1.40;100.00;100504.13;4984646;28;20058;-80
2024/03/05 01:15:25;;;;;;;25.48;13.63;;;;;;;-1.46;100.00;100506.66;4985187;28;20034;-76
2024/03/05 01:17:52;;;;;;;35.53;13.88;;;;;;;-1.51;100.00;100511.78;5001157;28;20022;-79
2024/03/05 01:20:18;;;;;;;32.40;13.55;;;;;;;-1.52;100.00;100506.63;4985813;28;20078;-82
2024/03/05 01:22:46;;;;;;;32.30;13.32;;;;;;;-1.61;100.00;100502.34;5003834;28;20127;-81
2024/03/05 01:25:12;;;;;;;32.65;14.82;;;;;;;-1.65;100.00;100503.19;5021336;28;20038;-80
2024/03/05 01:27:39;;;;;;;27.70;13.80;;;;;;;-1.77;100.00;100500.56;5006798;28;20061;-81
2024/03/05 01:30:13;;;;;;;34.03;13.75;;;;;;;-1.73;100.00;100508.25;4988417;28;20046;-81
2024/03/05 01:32:40;;;;;;;36.15;14.32;;;;;;;-1.76;100.00;100505.66;5008320;28;20011;-84
2024/03/05 01:35:10;;;;;;;30.95;13.45;;;;;;;-1.73;100.00;100504.81;4978934;28;20031;-84
2024/03/05 01:37:37;;;;;;;27.90;14.25;;;;;;;-1.78;100.00;100493.72;4983062;28;20031;-84
2024/03/05 01:40:04;;;;;;;34.72;14.57;;;;;;;-1.82;100.00;100508.22;5015836;23;20117;-83
2024/03/05 01:42:32;;;;;;;26.23;13.68;;;;;;;-1.90;100.00;100509.03;5057099;28;20025;-83
2024/03/05 01:44:58;;;;;;;34.53;14.55;;;;;;;-1.86;100.00;100505.59;5009265;28;20087;-81
2024/03/05 01:47:26;;;;;;;31.73;13.85;;;;;;;-1.81;100.00;100511.63;5031147;28;20030;-80
2024/03/05 01:49:54;;;;;;;35.83;13.18;;;;;;;-1.90;100.00;100511.56;5028114;28;20021;-82
2024/03/05 01:52:21;;;;;;;25.20;13.15;;;;;;;-1.88;100.00;100503.06;5037117;28;20136;-81
2024/03/05 01:54:48;;;;;;;27.55;13.68;;;;;;;-1.90;100.00;100509.03;5054235;28;20241;-81
2024/03/05 01:57:15;;;;;;;24.60;14.00;;;;;;;-1.95;100.00;100503.88;5016283;28;20053;-81
2024/03/05 01:59:41;;;;;;;35.22;14.60;;;;;;;-1.83;100.00;100514.16;5027715;28;20162;-81
2024/03/05 02:02:09;;;;;;;31.05;13.48;;;;;;;-1.83;100.00;100510.78;5035785;28;20029;-81
2024/03/05 02:04:36;;;;;;;23.55;13.98;;;;;;;-1.87;100.00;100519.28;5053178;28;20029;-80
2024/03/05 02:07:02;;;;;;;32.72;13.68;;;;;;;-1.88;100.00;100518.41;5031640;28;20077;-82
2024/03/05 02:09:28;;;;;;;21.95;12.85;;;;;;;-1.84;100.00;100509.06;5022559;28;20068;-79
2024/03/05 02:11:54;;;;;;;20.55;12.95;;;;;;;-1.82;100.00;100517.56;5041436;28;20033;-82
2024/03/05 02:14:22;;;;;;;27.55;14.10;;;;;;;-1.72;100.00;100511.66;5039160;28;20096;-83
2024/03/05 02:16:48;;;;;;;20.10;12.25;;;;;;;-1.75;100.00;100516.78;5033537;28;20057;-82
2024/03/05 02:19:14;;;;;;;24.27;12.93;;;;;;;-1.66;100.00;100519.38;5014075;28;20072;-84
2024/03/05 02:21:40;;;;;;;20.60;13.50;;;;;;;-1.86;100.00;100487.69;5210848;22;20020;-77
2024/03/05 02:24:07;;;;;;;20.08;12.05;;;;;;;-1.82;100.00;100495.41;5055208;28;20025;-81
2024/03/05 02:26:33;;;;;;;20.08;11.85;;;;;;;-1.73;100.00;100522.75;5126155;23;20081;-81
2024/03/05 02:29:00;;;;;;;31.88;13.85;;;;;;;-1.71;100.00;100518.50;5173455;22;20057;-82
2024/03/05 02:31:26;;;;;;;19.17;12.30;;;;;;;-1.80;100.00;100515.91;5147443;23;20045;-83
2024/03/05 02:33:53;;;;;;;19.55;11.75;;;;;;;-1.94;100.00;100507.28;5025062;28;20049;-83
2024/03/05 02:36:23;;;;;;;24.83;12.43;;;;;;;-1.96;100.00;100511.53;5042221;28;20036;-82
2024/03/05 02:38:52;;;;;;;21.00;12.57;;;;;;;-1.93;100.00;100491.09;5025230;28;20014;-80
2024/03/05 02:41:20;;;;;;;18.15;12.32;;;;;;;-1.95;100.00;100500.44;5053985;28;20036;-80
2024/03/05 02:43:46;;;;;;;21.30;13.02;;;;;;;-2.06;100.00;100508.03;5051873;28;20041;-80
2024/03/05 02:46:13;;;;;;;18.15;12.18;;;;;;;-2.02;100.00;100503.81;5032960;28;20093;-80
2024/03/05 02:48:39;;;;;;;21.55;12.18;;;;;;;-2.11;100.00;100502.94;5051109;28;20025;-81
2024/03/05 02:51:05;;;;;;;27.48;13.07;;;;;;;-2.19;100.00;100508.81;5013874;28;20074;-80
2024/03/05 02:53:34;;;;;;;28.00;14.05;;;;;;;-2.17;100.00;100510.56;5006894;28;20072;-81
2024/03/05 02:56:04;;;;;;;32.30;14.68;;;;;;;-2.19;100.00;100502.00;5021698;28;20084;-83
2024/03/05 02:58:31;;;;;;;23.40;13.65;;;;;;;-2.18;100.00;100508.84;5046538;28;20060;-80
2024/03/05 03:00:57;;;;;;;21.20;12.85;;;;;;;-2.28;100.00;100503.63;5049812;28;20033;-82
2024/03/05 03:03:23;;;;;;;28.80;14.88;;;;;;;-2.23;100.00;100507.97;5029365;28;20057;-81
2024/03/05 03:05:49;;;;;;;38.63;17.60;;;;;;;-2.41;100.00;100500.13;5031611;28;20061;-80
2024/03/05 03:08:17;;;;;;;34.78;16.13;;;;;;;-2.35;100.00;100505.28;5042503;28;20022;-81
2024/03/05 03:10:43;;;;;;;28.48;15.60;;;;;;;-2.47;100.00;100506.91;5030620;28;20018;-83
2024/03/05 03:13:09;;;;;;;28.55;16.15;;;;;;;-2.42;100.00;100503.53;5020465;28;20038;-82
2024/03/05 03:15:35;;;;;;;23.90;13.75;;;;;;;-2.15;100.00;100503.75;5000344;28;20065;-85
2024/03/05 03:18:02;;;;;;;33.40;14.18;;;;;;;-1.61;100.00;100492.97;5037610;28;20037;-82
2024/03/05 03:20:28;;;;;;;19.67;11.48;;;;;;;-1.39;100.00;100493.91;5027376;28;20006;-84
2024/03/05 03:22:54;;;;;;;14.18;8.73;;;;;;;-1.23;100.00;100497.34;5054150;28;20092;-84
2024/03/05 03:25:21;;;;;;;11.50;7.85;;;;;;;-1.05;100.00;100485.44;5029181;28;20072;-84
2024/03/05 03:27:47;;;;;;;11.88;8.27;;;;;;;-1.02;100.00;100484.63;5118993;22;20049;-85
2024/03/05 03:30:17;;;;;;;14.50;9.20;;;;;;;-1.05;100.00;100490.56;5021035;28;20097;-80
2024/03/05 03:32:44;;;;;;;12.10;9.63;;;;;;;-1.12;100.00;100482.88;5035695;28;20037;-82
2024/03/05 03:35:13;;;;;;;16.45;10.90;;;;;;;-1.19;100.00;100487.13;5533131;23;20061;-85
2024/03/05 03:43:31;;;;;;;22.67;10.73;;;;;;;-1.40;100.00;100491.31;5526491;22;20008;-83
2024/03/05 03:45:58;;;;;;;17.05;11.82;;;;;;;-1.45;100.00;100487.91;5405278;23;20160;-84
2024/03/05 03:48:24;;;;;;;11.35;9.38;;;;;;;-1.45;100.00;100495.59;5695345;22;20064;-85
2024/03/05 03:50:50;;;;;;;12.68;8.23;;;;;;;-1.74;100.00;100449.41;5422632;22;20402;-79
2024/03/05 03:56:20;;;;;;;10.85;7.63;;;;;;;-1.50;100.00;100495.56;5341935;22;20113;-85
2024/03/05 03:59:04;;;;;;;8.32;6.57;;;;;;;-1.56;100.00;100505.78;5703120;23;20227;31
2024/03/05 04:04:32;;;;;;;11.02;7.93;;;;;;;-1.72;100.00;100499.72;5225629;22;20932;-82
2024/03/05 04:09:55;;;;;;;11.93;9.70;;;;;;;-1.76;100.00;100510.78;5677142;22;20052;-81
2024/03/05 04:12:21;;;;;;;33.58;16.42;;;;;;;-1.89;100.00;100505.59;5037333;28;20053;-81
2024/03/05 04:14:48;;;;;;;31.73;14.85;;;;;;;-1.94;100.00;100507.28;5017970;28;20064;-79
2024/03/05 04:17:15;;;;;;;35.47;16.73;;;;;;;-2.03;100.00;100505.53;5028311;28;20060;-82
2024/03/05 04:19:42;;;;;;;12.35;9.15;;;;;;;-2.03;100.00;100504.69;5055574;28;20037;-79
2024/03/05 04:22:08;;;;;;;14.80;10.38;;;;;;;-2.08;100.00;100508.88;5046273;28;20041;-81
2024/03/05 04:24:37;;;;;;;12.80;9.07;;;;;;;-2.11;100.00;100509.72;5054239;28;20099;-81
2024/03/05 04:27:04;;;;;;;14.25;9.25;;;;;;;-2.14;100.00;100509.72;5062228;28;20064;-81
2024/03/05 04:29:30;;;;;;;15.10;10.15;;;;;;;-2.18;100.00;100498.59;5038450;28;20055;-80
2024/03/05 04:32:08;;;;;;;15.70;9.98;;;;;;;-2.16;100.00;100508.88;5032933;28;20089;-82
2024/03/05 04:34:49;;;;;;;18.50;9.55;;;;;;;-2.19;100.00;100507.13;5027464;28;20033;-81
2024/03/05 04:37:17;;;;;;;13.05;9.13;;;;;;;-2.23;100.00;100509.66;5012755;28;20136;-79
2024/03/05 04:39:43;;;;;;;14.23;9.52;;;;;;;-2.28;100.00;100507.06;5030395;28;20069;-81
2024/03/05 04:42:09;;;;;;;17.75;10.57;;;;;;;-2.29;100.00;100514.72;4991398;28;20793;-81
2024/03/05 04:44:35;;;;;;;20.10;11.98;;;;;;;-2.29;100.00;100510.44;5019815;28;20056;-80
2024/03/05 04:47:03;;;;;;;13.65;9.70;;;;;;;-2.30;100.00;100513.00;5003550;28;20093;-78
2024/03/05 04:49:30;;;;;;;18.60;11.57;;;;;;;-2.33;100.00;100518.09;5026626;28;20060;-79
2024/03/05 04:51:56;;;;;;;15.82;10.23;;;;;;;-2.35;100.00;100512.97;5010325;28;20038;-79
2024/03/05 04:54:22;;;;;;;14.85;10.77;;;;;;;-2.32;100.00;100519.78;5002806;28;20044;-79
2024/03/05 04:56:48;;;;;;;14.15;10.32;;;;;;;-2.35;100.00;100515.53;4986521;28;20073;-81
2024/03/05 04:59:14;;;;;;;16.85;10.63;;;;;;;-2.29;100.00;100527.50;5005978;28;20034;-77
2024/03/05 05:01:40;;;;;;;15.27;11.88;;;;;;;-2.32;100.00;100533.44;5018780;28;20040;-79
2024/03/05 05:04:06;;;;;;;12.45;9.45;;;;;;;-2.36;100.00;100528.31;5014507;28;20034;-79
2024/03/05 05:06:32;;;;;;;13.15;8.70;;;;;;;-2.35;100.00;100546.19;5021364;28;20046;-79
2024/03/05 05:08:59;;;;;;;18.95;11.50;;;;;;;-2.39;100.00;100541.88;5014833;28;20045;-79
2024/03/05 05:11:25;;;;;;;17.65;11.30;;;;;;;-2.41;100.00;100535.94;5024621;28;20195;-80
2024/03/05 05:13:52;;;;;;;14.88;9.50;;;;;;;-2.41;100.00;100541.03;5007585;28;20065;-79
2024/03/05 05:16:18;;;;;;;14.25;11.27;;;;;;;-2.39;100.00;100543.63;5014622;28;20038;-79
2024/03/05 05:18:45;;;;;;;16.55;10.18;;;;;;;-2.40;100.00;100544.47;5012536;28;20049;-80
2024/03/05 05:21:11;;;;;;;11.80;8.90;;;;;;;-2.39;100.00;100547.00;5008133;28;20500;-81
2024/03/05 05:23:39;;;;;;;18.33;12.13;;;;;;;-2.40;100.00;100549.56;5016443;28;20200;-80
2024/03/05 05:26:05;;;;;;;20.35;9.38;;;;;;;-2.28;100.00;100562.44;5031745;28;20052;-80
2024/03/05 05:28:31;;;;;;;17.38;10.13;;;;;;;-2.29;100.00;100560.75;5019195;28;20079;-81
2024/03/05 05:30:58;;;;;;;15.55;10.32;;;;;;;-2.21;100.00;100551.41;5021687;28;20034;-80
2024/03/05 05:33:25;;;;;;;15.57;9.85;;;;;;;-2.23;100.00;100550.56;5006723;28;20456;-79
2024/03/05 05:35:51;;;;;;;15.50;9.90;;;;;;;-2.11;100.00;100551.50;5002716;28;20054;-78
2024/03/05 05:38:17;;;;;;;22.20;12.25;;;;;;;-2.17;100.00;100555.72;5024236;28;20203;-79
2024/03/05 05:40:43;;;;;;;20.17;13.20;;;;;;;-2.16;100.00;100558.28;5015973;28;20045;-79
2024/03/05 05:43:11;;;;;;;16.80;10.27;;;;;;;-2.15;100.00;100565.13;5018628;28;20045;-77
2024/03/05 05:45:37;;;;;;;19.02;11.43;;;;;;;-2.01;100.00;100572.91;4994087;28;20030;-80
2024/03/05 05:48:04;;;;;;;17.65;10.52;;;;;;;-2.08;100.00;100565.16;5014019;28;20049;-80
2024/03/05 05:50:31;;;;;;;22.23;15.35;;;;;;;-2.16;100.00;100576.19;5046209;23;20102;-84
2024/03/05 06:02:03;;;;;;;19.02;13.50;;;;;;;-2.07;100.00;100574.56;5523925;22;20057;-84
2024/03/05 06:07:33;;;;;;;14.75;10.82;;;;;;;-1.96;100.00;100581.44;5204034;22;20058;-81
2024/03/05 06:09:59;;;;;;;19.45;12.35;;;;;;;-1.88;100.00;100577.25;5006741;28;20041;-82
2024/03/05 06:12:27;;;;;;;15.57;12.45;;;;;;;-1.77;100.00;100585.88;5024407;28;20054;-82
2024/03/05 06:14:53;;;;;;;19.95;13.32;;;;;;;-1.78;100.00;100586.69;5041928;28;20225;-80
2024/03/05 06:17:19;;;;;;;19.08;12.82;;;;;;;-1.70;100.00;100581.59;5037912;23;20049;-79
2024/03/05 06:19:45;;;;;;;22.08;14.05;;;;;;;-142.02;100.00;61695.09;5044336;23;20064;-79
2024/03/05 06:22:11;;;;;;;12.48;8.82;;;;;;;-142.02;100.00;61695.09;5052508;28;20173;-80
2024/03/05 06:24:37;;;;;;;13.35;11.90;;;;;;;-142.02;100.00;61695.09;5406102;22;20077;-83
2024/03/05 06:27:04;;;;;;;20.58;14.70;;;;;;;-142.02;100.00;61695.09;5020238;28;20033;-81
2024/03/05 06:29:30;;;;;;;18.48;12.13;;;;;;;-142.02;100.00;61695.09;5329345;23;20335;-82
2024/03/05 06:32:22;;;;;;;15.75;10.30;;;;;;;-142.02;100.00;61695.09;5523631;22;20039;31
2024/03/05 06:34:51;;;;;;;13.10;10.82;;;;;;;-142.02;100.00;61695.09;4994473;28;20100;-83
2024/03/05 06:37:17;;;;;;;14.63;10.00;;;;;;;-142.02;100.00;61695.09;5199340;23;20046;-82
2024/03/05 06:39:44;;;;;;;14.25;10.73;;;;;;;-1.70;100.00;100581.59;5015075;28;20084;-77
2024/03/05 06:51:04;;;;;;;16.15;12.38;;;;;;;-1.13;100.00;100615.22;5549768;22;20037;-84
2024/03/05 06:59:03;;;;;;;17.60;13.20;;;;;;;-1.09;100.00;100624.66;5026591;28;20025;-80
2024/03/05 07:01:31;;;;;;;16.90;10.98;;;;;;;-1.20;100.00;100628.84;5020731;28;20042;-77
2024/03/05 07:03:58;;;;;;;15.88;11.88;;;;;;;-1.08;100.00;100633.19;4993163;28;20069;-78
2024/03/05 07:06:24;;;;;;;17.88;12.50;;;;;;;-142.02;100.00;61695.09;4995597;28;20061;-80
2024/03/05 07:08:53;;;;;;;14.95;10.75;;;;;;;-142.02;100.00;61695.09;5031944;28;20038;-80
2024/03/05 07:11:19;;;;;;;15.63;11.90;;;;;;;-1.14;100.00;100636.56;5013595;28;20049;-81
2024/03/05 07:13:51;;;;;;;16.40;11.23;;;;;;;-1.10;100.00;100640.84;5021046;28;20048;-79
2024/03/05 07:16:18;;;;;;;13.77;9.20;;;;;;;-1.04;100.00;100634.88;5006546;28;20046;-79
2024/03/05 07:18:53;;;;;;;14.90;10.15;;;;;;;-1.02;100.00;100634.91;5004218;28;20028;-80
2024/03/05 07:21:21;;;;;;;17.15;14.82;;;;;;;-1.06;100.00;100645.16;5032313;28;20049;-81
2024/03/05 07:23:48;;;;;;;14.65;10.40;;;;;;;-1.10;100.00;100651.09;5021563;28;20069;-80
2024/03/05 07:26:15;;;;;;;13.75;11.23;;;;;;;-1.15;100.00;100646.81;5003256;28;20035;-79
2024/03/05 07:28:41;;;;;;;14.90;9.70;;;;;;;-1.06;100.00;100641.72;5018919;28;20058;-78
2024/03/05 07:31:07;;;;;;;16.52;7.45;;;;;;;-0.97;100.00;100646.88;4991922;28;20046;-79
2024/03/05 07:33:33;;;;;;;15.07;12.18;;;;;;;-0.92;100.00;100639.22;5009375;28;20038;-80
2024/03/05 07:35:59;;;;;;;17.38;12.10;;;;;;;-0.98;100.00;100652.84;4998106;28;20154;-80
2024/03/05 07:38:25;;;;;;;19.10;11.88;;;;;;;-0.90;100.00;100650.31;4981522;28;20031;-80
2024/03/05 07:40:51;;;;;;;13.38;11.50;;;;;;;-142.02;100.00;61695.09;4962958;28;20097;-79
2024/03/05 07:43:17;;;;;;;11.27;9.02;;;;;;;-0.90;100.00;100650.31;5004173;28;20049;-80
2024/03/05 07:45:43;;;;;;;11.98;10.65;;;;;;;-0.86;100.00;100662.31;4979265;28;20114;-81
2024/03/05 07:48:13;;;;;;;17.65;13.07;;;;;;;-0.74;100.00;100660.66;4991730;28;20055;-79
2024/03/05 07:50:40;;;;;;;12.75;9.90;;;;;;;-0.62;100.00;100652.13;4970614;28;20042;-80
2024/03/05 07:53:06;;;;;;;17.65;13.05;;;;;;;-0.57;100.00;100653.03;4984876;28;20050;-79
2024/03/05 07:55:37;;;;;;;15.25;11.38;;;;;;;-0.50;100.00;100653.88;4996221;28;20070;-79
2024/03/05 07:58:04;;;;;;;16.15;13.52;;;;;;;-142.02;100.00;61695.09;5000656;28;20655;-78
2024/03/05 08:00:30;;;;;;;13.25;11.05;;;;;;;-142.02;100.00;61695.09;4986000;28;20050;-79
2024/03/05 08:02:57;;;;;;;14.40;10.10;;;;;;;-142.02;100.00;61695.09;4981879;28;20030;-80
2024/03/05 08:05:23;;;;;;;12.98;10.43;;;;;;;-142.02;100.00;61695.09;4983729;28;20070;-78
2024/03/05 08:07:50;;;;;;;14.68;9.98;;;;;;;-142.02;100.00;61695.09;4977353;28;20662;-77
2024/03/05 08:10:19;;;;;;;15.20;12.35;;;;;;;-142.02;100.00;61695.09;4986282;28;20508;-78
2024/03/05 08:12:47;;;;;;;13.57;11.35;;;;;;;-142.02;100.00;61695.09;4985480;28;20073;-80
2024/03/05 08:15:16;;;;;;;14.52;12.85;;;;;;;-142.02;100.00;61695.09;4982224;28;20030;-79
2024/03/05 08:17:46;;;;;;;15.32;10.93;;;;;;;-142.02;100.00;61695.09;4977588;28;20050;-79
2024/03/05 08:20:14;;;;;;;18.30;11.20;;;;;;;-142.02;100.00;61695.09;5004524;28;20041;-80
2024/03/05 08:22:40;;;;;;;7.13;6.32;;;;;;;-142.02;100.00;61695.09;5006542;28;20050;-81
2024/03/05 08:25:09;;;;;;;16.42;13.32;;;;;;;-142.02;100.00;61695.09;5009262;28;20465;-80
2024/03/05 08:27:39;;;;;;;14.88;12.73;;;;;;;-142.02;100.00;61695.09;4982854;28;20042;-78
2024/03/05 08:30:09;;;;;;;12.45;11.15;;;;;;;-142.02;100.00;61695.09;4991813;28;20046;-78
2024/03/05 08:32:36;;;;;;;13.05;7.75;;;;;;;-142.02;100.00;61695.09;4986800;28;20042;-81
2024/03/05 08:35:03;;;;;;;13.18;11.80;;;;;;;-142.02;100.00;61695.09;4975312;28;20038;-81
2024/03/05 08:37:30;;;;;;;17.33;11.77;;;;;;;-142.02;100.00;61695.09;4995139;28;20060;-80
2024/03/05 08:39:56;;;;;;;10.02;8.90;;;;;;;-142.02;100.00;61695.09;4998021;28;20045;-80
2024/03/05 08:42:29;;;;;;;14.20;9.23;;;;;;;-142.02;100.00;61695.09;4968685;28;20050;-81
2024/03/05 08:44:55;;;;;;;12.13;8.55;;;;;;;-142.02;100.00;61695.09;4981824;28;20532;-80
2024/03/05 08:47:21;;;;;;;14.80;11.95;;;;;;;-142.02;100.00;61695.09;4981510;28;20130;-80
2024/03/05 08:49:50;;;;;;;14.55;10.02;;;;;;;-142.02;100.00;61695.09;4981347;28;20105;-80
2024/03/05 08:52:18;;;;;;;11.63;10.40;;;;;;;-142.02;100.00;61695.09;4965588;28;20480;-81
2024/03/05 08:54:44;;;;;;;12.27;8.65;;;;;;;-142.02;100.00;61695.09;4961245;28;20038;-81
2024/03/05 08:57:10;;;;;;;11.38;8.85;;;;;;;-142.02;100.00;61695.09;4982191;28;20046;-81
2024/03/05 08:59:36;;;;;;;12.02;8.25;;;;;;;-142.02;100.00;61695.09;4998285;28;20121;-81
2024/03/05 09:02:04;;;;;;;11.75;7.63;;;;;;;-142.02;100.00;61695.09;4998776;28;20124;-81
2024/03/05 09:04:30;;;;;;;10.48;9.45;;;;;;;-142.02;100.00;61695.09;4980074;28;20132;-81
2024/03/05 09:06:56;;;;;;;12.43;11.15;;;;;;;-142.02;100.00;61695.09;4977784;28;20732;-80
2024/03/05 12:28:17;;;;;;;2.20;1.98;;;;;;;;;;5064191;27;20155;-72
2024/03/05 12:30:43;;;;;;;3.55;2.13;;;;;;;;;;5076945;27;20041;-72
2024/03/05 12:33:09;;;;;;;1.83;1.73;;;;;;;;;;5034775;27;20033;-70
2024/03/05 12:35:35;;;;;;;1.55;1.55;;;;;;;;;;5037026;27;20578;-73
2024/03/05 12:38:05;;;;;;;1.90;1.80;;;;;;;;;;5036278;27;20539;-71
2024/03/05 12:40:32;;;;;;;2.00;1.90;;;;;;;;;;5038128;27;20037;-72
2024/03/05 12:43:08;;;;;;;2.38;2.10;;;;;;;;;;5034105;27;20033;-72
2024/03/05 12:45:34;;;;;;;2.42;2.13;;;;;;;;;;5027989;27;20025;-72
2024/03/05 12:48:01;;;;;;;1.60;1.60;;;;;;;;;;5029101;27;20050;-71
2024/03/05 12:50:27;;;;;;;2.00;1.90;;;;;;;;;;5038282;27;20037;-71
2024/03/05 12:53:00;;;;;;;1.98;1.88;;;;;;;;;;5032223;27;20044;-73
2024/03/05 12:55:27;;;;;;;2.15;1.95;;;;;;;;;;5035896;28;20056;-71
2024/03/05 12:58:03;;;;;;;3.13;1.77;;;;;;;;;;5045966;27;20060;-70
2024/03/05 13:00:34;;;;;;;1.90;1.80;;;;;;;;;;5027587;27;20025;-72
2024/03/05 13:03:07;;;;;;;1.98;1.70;;;;;;;;;;5037421;27;20041;-72
2024/03/05 13:05:34;;;;;;;1.80;1.70;;;;;;;;;;5032377;27;20124;-71
2024/03/05 13:08:00;;;;;;;1.70;1.65;;;;;;;;;;5035511;27;20136;-71
2024/03/05 13:10:26;;;;;;;1.98;1.90;;;;;;;;;;5034411;27;20041;-71
2024/03/05 13:12:53;;;;;;;1.83;1.73;;;;;;;;;;5034737;27;20101;-71
2024/03/05 13:15:20;;;;;;;2.00;1.90;;;;;;;;;;5040736;27;20310;-71
2024/03/05 13:17:47;;;;;;;2.05;1.95;;;;;;;;;;5019070;27;20397;-70
2024/03/05 13:20:19;;;;;;;1.70;1.60;;;;;;;;;;5015693;28;20026;-71
2024/03/05 13:22:46;;;;;;;1.80;1.70;;;;;;;;;;5021658;28;20037;-71
2024/03/05 13:25:15;;;;;;;2.53;1.92;;;;;;;;;;5017863;28;20038;-73
2024/03/05 13:27:44;;;;;;;1.90;1.80;;;;;;;;;;5016577;28;20065;-73
2024/03/05 13:30:16;;;;;;;2.10;2.00;;;;;;;;;;5029649;28;20056;-73
2024/03/05 13:32:45;;;;;;;2.00;1.90;;;;;;;;;;5023539;28;20064;-72
2024/03/05 13:35:13;;;;;;;3.42;2.13;;;;;;;;;;5014418;28;20039;-74
2024/03/05 13:37:44;;;;;;;1.15;1.15;;;;;;;;;;5027496;28;20086;-73
2024/03/05 13:40:11;;;;;;;3.15;1.90;;;;;;;;;;5028918;28;20118;-72
2024/03/05 13:42:38;;;;;;;1.85;1.75;;;;;;;;;;5017510;28;20334;-72
2024/03/05 13:45:12;;;;;;;1.85;1.75;;;;;;;;;;5030053;27;20089;-73
2024/03/05 13:47:39;;;;;;;1.50;1.40;;;;;;;;;;5021778;28;20041;-72
2024/03/05 13:50:10;;;;;;;1.83;1.70;;;;;;;;;;5014564;28;20100;-70
2024/03/05 13:52:42;;;;;;;3.83;2.72;;;;;;;;;;5020737;28;20161;-70
2024/03/05 13:55:08;;;;;;;1.77;1.60;;;;;;;;;;5002355;28;20044;-70
2024/03/05 13:57:34;;;;;;;1.58;1.50;;;;;;;;;;5020704;27;20034;-71
2024/03/05 14:00:00;;;;;;;1.83;1.73;;;;;;;;;;5027330;27;20094;-71
2024/03/05 14:02:27;;;;;;;2.00;1.90;;;;;;;;;;5022584;28;20056;-72
2024/03/05 14:04:53;;;;;;;3.47;2.40;;;;;;;;;;5020202;28;20083;-70
2024/03/05 14:07:19;;;;;;;3.15;2.25;;;;;;;;;;5021502;28;20520;-71
2024/03/05 14:09:46;;;;;;;2.22;1.80;;;;;;;;;;5023234;27;20046;-70
2024/03/05 14:12:13;;;;;;;2.50;2.40;;;;;;;;;;5005063;28;20071;-70
2024/03/05 14:14:40;;;;;;;3.20;2.33;;;;;;;;;;5021521;28;20460;-71
2024/03/05 14:17:06;;;;;;;2.88;2.30;;;;;;;;;;5019274;28;20120;-72
2024/03/05 14:19:33;;;;;;;2.72;2.53;;;;;;;;;;5008440;28;20029;-71
2024/03/05 14:22:00;;;;;;;2.30;2.20;;;;;;;;;;5025248;27;20038;-71
2024/03/05 14:24:27;;;;;;;4.50;2.65;;;;;;;;;;5061605;27;20032;-74
2024/03/05 14:26:53;;;;;;;2.90;2.70;;;;;;;;;;5027881;28;20057;-74
2024/03/05 14:29:20;;;;;;;3.40;3.10;;;;;;;;;;5013759;28;20052;-74
2024/03/05 14:31:46;;;;;;;2.70;2.60;;;;;;;;;;5046932;28;20041;-73
2024/03/05 14:34:15;;;;;;;2.28;2.17;;;;;;;;;;5029474;28;20037;-73
2024/03/05 14:36:42;;;;;;;2.55;2.45;;;;;;;;;;5047734;28;20061;-74
2024/03/05 14:39:10;;;;;;;3.08;2.88;;;;;;;;;;5045081;28;20068;-72
2024/03/05 14:41:36;;;;;;;2.58;2.38;;;;;;;;;;5014649;28;20116;-72
2024/03/05 14:44:04;;;;;;;1.85;1.85;;;;;;;;;;5023788;28;20026;-73
2024/03/05 14:46:31;;;;;;;2.53;2.42;;;;;;;;;;5021041;27;20041;-75
2024/03/05 14:48:56;;;;;;;2.20;2.10;;;;;;;;;;5019993;28;20091;-73
2024/03/05 14:51:25;;;;;;;1.90;1.83;;;;;;;;;;5024325;27;20061;-73
2024/03/05 14:53:52;;;;;;;2.63;2.50;;;;;;;;;;5002323;28;20389;-73
2024/03/05 14:56:18;;;;;;;5.15;2.50;;;;;;;;;;5022863;28;20030;-73
2024/03/05 14:58:44;;;;;;;2.30;2.20;;;;;;;;;;5002119;28;20107;-74
2024/03/05 15:01:11;;;;;;;4.07;2.80;;;;;;;;;;5004242;28;20033;-72
2024/03/05 15:03:37;;;;;;;3.00;2.70;;;;;;;;;;5001380;28;20103;-73
2024/03/05 15:06:04;;;;;;;2.92;2.72;;;;;;;;;;5006890;28;20038;-72
2024/03/05 15:08:30;;;;;;;3.35;2.58;;;;;;;;;;5007887;28;20045;-74
2024/03/05 15:10:56;;;;;;;3.05;2.85;;;;;;;;;;4996773;28;20041;-74
2024/03/05 15:13:23;;;;;;;3.17;2.97;;;;;;;;;;5011754;28;20042;-72
2024/03/05 15:15:49;;;;;;;3.20;3.00;;;;;;;;;;5002902;28;20026;-73
2024/03/05 15:18:15;;;;;;;3.50;3.20;;;;;;;;;;5029296;28;20053;-73
2024/03/05 15:20:41;;;;;;;3.50;3.30;;;;;;;;;;4998711;28;20053;-73
2024/03/05 15:23:10;;;;;;;4.70;2.95;;;;;;;;;;4993685;28;20182;-72
2024/03/05 15:25:36;;;;;;;3.42;3.13;;;;;;;;;;5054155;28;20409;-71
2024/03/05 15:28:03;;;;;;;4.03;2.85;;;;;;;;;;5065257;28;20081;-71
2024/03/05 15:30:33;;;;;;;3.72;3.28;;;;;;;;;;4957110;28;20513;-71
2024/03/05 15:32:59;;;;;;;4.38;3.97;;;;;;;;;;4992650;28;20029;-72
2024/03/05 15:35:28;;;;;;;3.40;3.20;;;;;;;;;;4983950;28;20525;-71
2024/03/05 15:37:56;;;;;;;3.83;3.63;;;;;;;;;;5007211;28;20052;-72
2024/03/05 15:40:22;;;;;;;4.15;3.85;;;;;;;;;;5054411;27;20087;-74
2024/03/05 15:42:49;;;;;;;3.33;3.13;;;;;;;;;;5063308;27;20496;-74
2024/03/05 15:45:16;;;;;;;3.80;3.45;;;;;;;;;;5019731;28;20061;-74
2024/03/05 15:47:43;;;;;;;3.85;3.05;;;;;;;;;;5004682;28;20099;-74
2024/03/05 15:50:15;;;;;;;4.43;4.13;;;;;;;;;;5025897;28;20187;-73
2024/03/05 15:52:48;;;;;;;4.60;3.88;;;;;;;;;;5028443;28;20508;-73
2024/03/05 15:55:18;;;;;;;4.80;4.40;;;;;;;;;;4997188;28;20026;-73